Time;durP1;ratioP1;P1;durP2;ratioP2;P2;SDS_P1;SDS_P2;PMS_P1;PMS_P2;Temp;Humidity;BMP_temperature;BMP_pressure;BME280_temperature;BME280_humidity;BME280_pressure;Samples;Min_cycle;Max_cycle;Signal;HPM_P1;HPM_P2
2023/08/17 00:00:56;;;;;;;17.95;12.95;;;25.80;97.30;;;;;;5090397;28;20043;-67
2023/08/17 00:04:00;;;;;;;18.15;12.93;;;25.80;97.70;;;;;;5090566;28;20404;-68
2023/08/17 00:07:04;;;;;;;18.63;13.35;;;25.70;97.30;;;;;;5090662;28;20047;-67
2023/08/17 00:10:09;;;;;;;17.63;14.55;;;25.70;97.40;;;;;;5090293;28;20054;-67
2023/08/17 00:13:14;;;;;;;20.90;13.60;;;25.60;97.50;;;;;;5092353;28;20511;-67
2023/08/17 00:16:18;;;;;;;18.77;13.48;;;25.60;97.50;;;;;;5094302;28;20043;-67
2023/08/17 00:19:22;;;;;;;19.67;13.30;;;25.60;97.70;;;;;;5094101;28;20055;-68
2023/08/17 00:22:27;;;;;;;18.73;13.55;;;25.70;97.70;;;;;;5094209;28;20043;-67
2023/08/17 00:25:30;;;;;;;18.42;13.18;;;25.70;97.70;;;;;;5094280;28;20046;-68
2023/08/17 00:28:35;;;;;;;18.05;13.77;;;25.60;97.80;;;;;;5093074;28;20075;-68
2023/08/17 00:31:39;;;;;;;16.35;13.43;;;25.60;97.80;;;;;;5093729;28;20051;-68
2023/08/17 00:34:43;;;;;;;20.17;14.50;;;25.60;97.70;;;;;;5093107;28;20110;-68
2023/08/17 00:37:47;;;;;;;17.42;12.93;;;25.60;97.70;;;;;;5093873;28;20051;-68
2023/08/17 00:40:50;;;;;;;21.00;13.45;;;25.60;97.80;;;;;;5092645;28;20063;-68
2023/08/17 00:43:54;;;;;;;19.27;12.95;;;25.60;97.90;;;;;;5093579;28;20055;-68
2023/08/17 00:46:59;;;;;;;14.18;12.27;;;25.60;97.90;;;;;;5094226;28;20076;-68
2023/08/17 00:50:04;;;;;;;14.93;12.82;;;25.60;97.90;;;;;;5093612;28;20392;-67
2023/08/17 00:53:13;;;;;;;19.80;13.00;;;25.50;97.90;;;;;;5094123;28;20039;-67
2023/08/17 00:56:17;;;;;;;18.35;12.43;;;25.50;97.90;;;;;;5092438;28;20103;-67
2023/08/17 00:59:22;;;;;;;18.08;11.80;;;25.50;97.90;;;;;;5092407;28;20055;-67
2023/08/17 01:02:26;;;;;;;14.85;12.32;;;25.50;98.00;;;;;;5093451;28;20043;-67
2023/08/17 01:05:32;;;;;;;17.50;12.25;;;25.50;98.00;;;;;;5092602;28;20043;-67
2023/08/17 01:08:37;;;;;;;13.38;11.57;;;25.40;98.20;;;;;;5093116;28;20388;-67
2023/08/17 01:11:58;;;;;;;16.90;11.55;;;25.40;98.00;;;;;;5092969;28;20047;-67
2023/08/17 01:15:06;;;;;;;17.38;11.90;;;25.40;98.10;;;;;;5092094;28;20094;-68
2023/08/17 01:18:23;;;;;;;14.80;11.45;;;25.40;98.10;;;;;;5092994;28;20226;-67
2023/08/17 01:21:42;;;;;;;18.88;13.13;;;25.40;98.00;;;;;;5093164;28;20396;-67
2023/08/17 01:24:46;;;;;;;13.82;11.55;;;25.40;98.00;;;;;;5092978;28;20433;-67
2023/08/17 01:27:52;;;;;;;20.77;13.38;;;25.30;98.20;;;;;;5092707;28;20404;-68
2023/08/17 01:31:13;;;;;;;15.75;12.32;;;25.20;98.10;;;;;;5092534;28;20056;-66
2023/08/17 01:34:23;;;;;;;15.98;12.98;;;25.10;98.20;;;;;;5092916;28;20442;-67
2023/08/17 01:37:31;;;;;;;18.63;12.23;;;25.10;98.40;;;;;;5092699;28;20047;-67
2023/08/17 01:40:37;;;;;;;17.27;12.75;;;25.00;98.80;;;;;;5092749;28;20051;-67
2023/08/17 01:43:45;;;;;;;17.65;13.20;;;25.00;98.60;;;;;;5091579;28;20374;-67
2023/08/17 01:46:49;;;;;;;19.33;15.25;;;25.00;98.60;;;;;;5091720;28;20507;-66
2023/08/17 01:49:53;;;;;;;16.02;12.95;;;24.90;98.80;;;;;;5091602;28;20043;-66
2023/08/17 01:52:58;;;;;;;20.50;14.13;;;24.90;98.80;;;;;;5091616;28;20047;-67
2023/08/17 01:56:03;;;;;;;21.15;13.93;;;24.90;98.70;;;;;;5091832;28;20052;-67
2023/08/17 01:59:07;;;;;;;25.13;13.95;;;24.90;98.50;;;;;;5091118;28;20066;-67
2023/08/17 02:02:14;;;;;;;20.20;14.10;;;24.90;98.60;;;;;;5091373;28;20043;-67
2023/08/17 02:05:18;;;;;;;16.42;12.70;;;24.80;98.70;;;;;;5091509;28;20047;-67
2023/08/17 02:08:23;;;;;;;20.90;12.82;;;24.80;98.80;;;;;;5091118;28;20047;-67
2023/08/17 02:11:27;;;;;;;20.35;13.63;;;24.80;98.60;;;;;;5092061;28;20036;-67
2023/08/17 02:14:31;;;;;;;23.30;13.57;;;24.80;98.50;;;;;;5092081;28;20047;-66
2023/08/17 02:17:35;;;;;;;18.52;13.35;;;24.70;98.40;;;;;;5090857;28;20047;-67
2023/08/17 02:20:39;;;;;;;22.25;14.13;;;24.70;98.50;;;;;;5079448;28;20055;-67
2023/08/17 02:23:43;;;;;;;17.27;12.57;;;24.50;98.30;;;;;;5091941;28;20047;-68
2023/08/17 02:26:47;;;;;;;18.02;14.35;;;24.60;98.50;;;;;;5091609;28;20071;-68
2023/08/17 02:29:51;;;;;;;15.98;13.57;;;24.60;98.40;;;;;;5091750;28;20055;-67
2023/08/17 02:32:56;;;;;;;21.90;14.80;;;24.60;98.60;;;;;;5091845;28;20058;-67
2023/08/17 02:36:01;;;;;;;16.92;13.40;;;24.60;98.40;;;;;;5091226;28;20074;-67
2023/08/17 02:39:05;;;;;;;19.92;13.25;;;24.50;98.20;;;;;;5090578;28;20059;-67
2023/08/17 02:42:09;;;;;;;25.63;15.55;;;24.40;98.20;;;;;;5090573;28;20039;-67
2023/08/17 02:45:13;;;;;;;21.65;14.65;;;24.40;98.40;;;;;;5091135;28;20063;-66
2023/08/17 02:48:17;;;;;;;19.85;15.52;;;24.30;98.50;;;;;;5091220;28;20400;-67
2023/08/17 02:51:20;;;;;;;17.63;14.70;;;24.30;98.70;;;;;;5091115;28;20223;-67
2023/08/17 02:54:24;;;;;;;26.20;15.45;;;24.30;98.60;;;;;;5090581;28;20043;-67
2023/08/17 02:57:28;;;;;;;22.20;14.40;;;24.30;98.60;;;;;;5091295;28;20043;-66
2023/08/17 03:00:32;;;;;;;22.77;15.57;;;24.40;98.50;;;;;;5090867;28;20051;-67
2023/08/17 03:03:37;;;;;;;20.35;17.58;;;24.40;98.50;;;;;;5091289;28;20035;-66
2023/08/17 03:06:41;;;;;;;24.38;17.92;;;24.40;98.50;;;;;;5090263;28;20043;-67
2023/08/17 03:09:45;;;;;;;21.65;16.52;;;24.50;98.70;;;;;;5091007;28;20392;-67
2023/08/17 03:12:49;;;;;;;21.23;16.02;;;24.30;98.70;;;;;;5090101;28;20043;-66
2023/08/17 03:15:54;;;;;;;20.48;16.00;;;24.30;98.80;;;;;;5090804;28;20388;-66
2023/08/17 03:18:59;;;;;;;18.50;14.32;;;24.30;98.80;;;;;;5090841;28;20066;-66
2023/08/17 03:22:03;;;;;;;22.25;14.52;;;24.20;98.80;;;;;;5089756;28;20082;-67
2023/08/17 03:25:08;;;;;;;23.83;14.32;;;24.20;98.90;;;;;;5090102;28;20047;-66
2023/08/17 03:28:12;;;;;;;22.67;14.50;;;24.20;98.80;;;;;;5091115;28;20431;-67
2023/08/17 03:31:17;;;;;;;20.88;15.63;;;24.20;98.70;;;;;;5090024;28;20039;-67
2023/08/17 03:34:21;;;;;;;21.60;14.20;;;24.10;98.90;;;;;;5090773;28;20416;-67
2023/08/17 03:37:26;;;;;;;18.15;13.32;;;24.00;99.10;;;;;;5090197;28;20388;-67
2023/08/17 03:40:30;;;;;;;19.20;14.82;;;24.00;99.00;;;;;;5089781;28;20510;-66
2023/08/17 03:43:34;;;;;;;22.95;15.40;;;24.00;99.00;;;;;;5090053;28;20043;-67
2023/08/17 03:46:38;;;;;;;22.95;15.90;;;24.00;99.10;;;;;;5090115;28;20047;-67
2023/08/17 03:49:42;;;;;;;21.00;15.27;;;24.00;99.10;;;;;;5093780;28;20043;-67
2023/08/17 03:52:46;;;;;;;22.85;16.30;;;24.00;99.10;;;;;;5094910;28;20047;-67
2023/08/17 03:55:50;;;;;;;23.95;16.20;;;23.90;98.90;;;;;;5093677;28;20039;-67
2023/08/17 03:58:54;;;;;;;30.58;18.73;;;23.90;99.10;;;;;;5094519;28;20051;-67
2023/08/17 04:01:59;;;;;;;30.58;20.95;;;23.90;99.20;;;;;;5093856;28;20039;-66
2023/08/17 04:05:04;;;;;;;25.85;16.92;;;23.90;99.20;;;;;;5093786;28;20051;-66
2023/08/17 04:08:08;;;;;;;21.52;15.48;;;23.90;99.20;;;;;;5093496;28;20047;-66
2023/08/17 04:11:12;;;;;;;29.05;15.52;;;23.90;99.20;;;;;;5094451;28;20589;-66
2023/08/17 04:14:16;;;;;;;23.55;15.63;;;24.00;99.20;;;;;;5094464;28;20043;-67
2023/08/17 04:17:21;;;;;;;19.13;14.20;;;24.00;99.20;;;;;;5093552;28;20051;-68
2023/08/17 04:20:25;;;;;;;18.75;14.38;;;24.00;99.00;;;;;;5093131;28;20101;-67
2023/08/17 04:23:29;;;;;;;26.58;13.98;;;24.00;98.80;;;;;;5093409;28;20503;-67
2023/08/17 04:26:33;;;;;;;24.35;14.38;;;24.00;98.50;;;;;;5093127;28;20507;-67
2023/08/17 04:29:38;;;;;;;25.88;15.30;;;23.90;98.70;;;;;;5094094;28;20047;-67
2023/08/17 04:32:42;;;;;;;20.70;14.93;;;23.90;98.90;;;;;;5093734;28;20047;-69
2023/08/17 04:35:49;;;;;;;19.35;14.35;;;23.80;99.00;;;;;;5092765;28;20396;-66
2023/08/17 04:38:53;;;;;;;21.58;13.80;;;23.70;99.20;;;;;;5092941;28;20515;-67
2023/08/17 04:41:58;;;;;;;22.08;14.38;;;23.90;99.10;;;;;;5093686;28;20035;-67
2023/08/17 04:45:08;;;;;;;23.38;13.82;;;23.70;99.30;;;;;;5093186;28;20404;-68
2023/08/17 04:48:16;;;;;;;20.08;14.35;;;23.80;98.90;;;;;;5092592;28;20047;-68
2023/08/17 04:51:20;;;;;;;18.60;13.90;;;23.50;98.90;;;;;;5092405;28;20047;-67
2023/08/17 04:54:24;;;;;;;16.88;13.10;;;23.70;99.20;;;;;;5093610;28;20039;-67
2023/08/17 04:57:28;;;;;;;16.65;14.23;;;23.90;99.50;;;;;;5092590;28;20047;-67
2023/08/17 05:00:33;;;;;;;22.17;14.30;;;24.10;98.80;;;;;;5092627;28;20051;-68
2023/08/17 05:03:37;;;;;;;19.67;13.48;;;24.30;98.70;;;;;;5093451;28;20055;-67
2023/08/17 05:06:42;;;;;;;18.10;13.63;;;25.00;97.30;;;;;;5080892;28;20043;-67
2023/08/17 05:09:46;;;;;;;17.58;12.75;;;25.00;97.50;;;;;;5092421;28;20059;-67
2023/08/17 05:12:50;;;;;;;15.15;10.90;;;25.80;96.90;;;;;;5080925;28;20043;-67
2023/08/17 05:15:54;;;;;;;17.23;11.35;;;26.80;95.40;;;;;;5092563;28;20043;-68
2023/08/17 05:18:59;;;;;;;18.33;12.00;;;27.30;94.20;;;;;;5092415;28;20067;-67
2023/08/17 05:22:04;;;;;;;19.10;11.20;;;28.00;93.00;;;;;;5092246;28;20043;-67
2023/08/17 05:25:08;;;;;;;22.02;11.60;;;28.70;92.10;;;;;;5092153;28;20391;-67
2023/08/17 05:28:14;;;;;;;16.67;11.63;;;29.20;91.10;;;;;;5092281;28;20047;-67
2023/08/17 05:31:18;;;;;;;21.38;11.75;;;29.40;90.90;;;;;;5091938;28;20106;-67
2023/08/17 05:34:26;;;;;;;14.65;11.90;;;29.40;90.80;;;;;;5092001;28;20043;-67
2023/08/17 05:37:30;;;;;;;20.08;11.68;;;29.40;90.70;;;;;;5091635;28;20059;-68
2023/08/17 05:40:35;;;;;;;21.42;12.88;;;29.30;90.80;;;;;;5091735;28;20059;-67
2023/08/17 05:43:39;;;;;;;16.60;13.65;;;29.00;91.10;;;;;;5091692;28;20511;-67
2023/08/17 05:46:43;;;;;;;20.20;14.00;;;28.70;91.70;;;;;;5092283;28;20063;-68
2023/08/17 05:49:47;;;;;;;26.67;14.57;;;28.40;91.90;;;;;;5091556;28;20391;-67
2023/08/17 05:52:51;;;;;;;26.05;16.20;;;28.40;92.40;;;;;;5092179;28;20039;-68
2023/08/17 05:55:55;;;;;;;20.92;16.20;;;28.40;92.30;;;;;;5092514;28;20075;-67
2023/08/17 05:58:59;;;;;;;22.25;17.17;;;28.40;92.30;;;;;;5092182;28;20039;-68
2023/08/17 06:02:03;;;;;;;24.85;15.15;;;28.40;92.60;;;;;;5092383;28;20055;-67
2023/08/17 06:05:08;;;;;;;19.00;14.80;;;28.40;92.50;;;;;;5092643;28;20316;-68
2023/08/17 06:08:12;;;;;;;24.08;14.50;;;28.40;92.80;;;;;;5092046;28;20042;-68
2023/08/17 06:11:16;;;;;;;22.98;15.90;;;28.50;92.50;;;;;;5091712;28;20054;-67
2023/08/17 06:14:22;;;;;;;26.77;14.38;;;28.40;92.50;;;;;;5091242;28;20055;-69
2023/08/17 06:17:26;;;;;;;20.40;13.43;;;28.40;92.70;;;;;;5092166;28;20059;-69
2023/08/17 06:20:30;;;;;;;26.20;15.95;;;28.50;92.50;;;;;;5091517;28;20051;-67
2023/08/17 06:23:34;;;;;;;26.50;13.73;;;28.70;92.10;;;;;;5091787;28;20392;-68
2023/08/17 06:26:38;;;;;;;33.00;17.80;;;29.00;92.10;;;;;;5091591;28;20060;-69
2023/08/17 06:29:42;;;;;;;45.20;17.40;;;29.30;91.50;;;;;;5091536;28;20043;-69
2023/08/17 06:32:46;;;;;;;42.17;15.98;;;29.30;91.60;;;;;;5091072;28;20066;-68
2023/08/17 06:35:50;;;;;;;35.65;14.98;;;29.50;91.70;;;;;;5091800;28;20039;-68
2023/08/17 06:38:53;;;;;;;33.00;17.23;;;29.60;91.50;;;;;;5091445;28;20051;-68
2023/08/17 06:41:57;;;;;;;33.67;14.20;;;29.80;91.10;;;;;;5091301;28;20035;-67
2023/08/17 06:45:02;;;;;;;30.55;15.70;;;29.80;91.10;;;;;;5091652;28;20047;-68
2023/08/17 06:48:08;;;;;;;21.08;13.35;;;29.90;91.10;;;;;;5091287;28;20039;-68
2023/08/17 06:51:12;;;;;;;30.48;14.77;;;30.00;91.10;;;;;;5091041;28;20059;-68
2023/08/17 06:54:16;;;;;;;19.80;12.40;;;30.40;90.60;;;;;;5091470;28;20058;-68
2023/08/17 06:57:21;;;;;;;18.55;12.95;;;30.60;90.10;;;;;;5091539;28;20400;-68
2023/08/17 07:00:26;;;;;;;21.13;13.13;;;30.60;90.20;;;;;;5089733;28;20051;-68
2023/08/17 07:03:29;;;;;;;19.83;11.90;;;30.70;90.00;;;;;;5091137;28;20051;-68
2023/08/17 07:06:34;;;;;;;17.52;10.85;;;30.90;89.70;;;;;;5090942;28;20047;-69
2023/08/17 07:09:38;;;;;;;17.88;11.73;;;31.10;89.20;;;;;;5091055;28;20059;-67
2023/08/17 07:12:42;;;;;;;19.55;11.48;;;31.10;88.40;;;;;;5090914;28;20391;-68
2023/08/17 07:15:46;;;;;;;19.67;10.23;;;31.20;88.60;;;;;;5091163;28;20043;-68
2023/08/17 07:18:50;;;;;;;19.88;9.18;;;31.50;88.90;;;;;;5090798;28;20043;-67
2023/08/17 07:21:54;;;;;;;15.07;9.52;;;31.90;87.80;;;;;;5090785;28;20043;-68
2023/08/17 07:24:58;;;;;;;16.90;9.82;;;32.10;86.90;;;;;;5090087;28;20044;-68
2023/08/17 07:28:01;;;;;;;12.30;9.35;;;32.30;86.30;;;;;;5090431;28;20059;-69
2023/08/17 07:31:06;;;;;;;18.50;8.77;;;32.20;86.10;;;;;;5090689;28;20549;-68
2023/08/17 07:34:09;;;;;;;18.40;8.85;;;32.30;86.90;;;;;;5091018;28;20043;-68
2023/08/17 07:37:13;;;;;;;20.55;8.68;;;32.40;86.20;;;;;;5090716;28;20071;-68
2023/08/17 07:40:17;;;;;;;32.28;10.32;;;32.60;85.90;;;;;;5090551;28;20058;-68
2023/08/17 07:43:22;;;;;;;16.30;8.10;;;32.80;85.40;;;;;;5090703;28;20282;-68
2023/08/17 07:46:26;;;;;;;14.75;9.27;;;32.90;85.30;;;;;;5090915;28;20514;-67
2023/08/17 07:49:30;;;;;;;20.15;9.15;;;32.80;84.80;;;;;;5090718;28;20293;-67
2023/08/17 07:52:33;;;;;;;10.05;8.05;;;32.90;84.90;;;;;;5090677;28;20067;-67
2023/08/17 07:55:37;;;;;;;23.88;8.02;;;33.00;84.80;;;;;;5090547;28;20586;-67
2023/08/17 07:58:41;;;;;;;13.65;8.48;;;33.30;84.20;;;;;;5090371;28;20051;-67
2023/08/17 08:01:45;;;;;;;16.77;8.70;;;33.30;83.40;;;;;;5090756;28;20047;-68
2023/08/17 08:04:49;;;;;;;15.38;8.18;;;33.20;83.10;;;;;;5090825;28;20527;-67
2023/08/17 08:07:53;;;;;;;18.38;7.53;;;33.00;83.60;;;;;;5090595;28;20051;-67
2023/08/17 08:10:58;;;;;;;13.57;7.75;;;32.90;84.20;;;;;;5089287;28;20040;-67
2023/08/17 08:14:03;;;;;;;17.40;8.05;;;33.00;83.60;;;;;;5090263;28;20043;-67
2023/08/17 08:17:06;;;;;;;14.45;6.93;;;33.10;84.00;;;;;;5090099;28;20039;-67
2023/08/17 08:20:11;;;;;;;13.60;6.90;;;33.40;82.90;;;;;;5090066;28;20059;-67
2023/08/17 08:23:15;;;;;;;19.63;7.70;;;33.40;81.60;;;;;;5090441;28;20499;-67
2023/08/17 08:26:19;;;;;;;10.05;6.70;;;33.30;80.70;;;;;;5090199;28;20067;-67
2023/08/17 08:29:23;;;;;;;15.18;7.72;;;33.10;81.30;;;;;;5090159;28;20043;-67
2023/08/17 08:32:26;;;;;;;14.77;7.70;;;33.10;82.20;;;;;;5090229;28;20044;-68
2023/08/17 08:35:30;;;;;;;15.05;7.78;;;33.30;82.20;;;;;;5093877;28;20388;-69
2023/08/17 08:38:34;;;;;;;13.50;7.45;;;33.50;80.90;;;;;;5093146;28;20039;-69
2023/08/17 08:41:38;;;;;;;11.88;7.47;;;33.50;81.30;;;;;;5094143;28;20051;-68
2023/08/17 08:44:42;;;;;;;15.57;7.85;;;33.70;80.30;;;;;;5093886;28;20039;-67
2023/08/17 08:47:46;;;;;;;12.80;8.73;;;33.50;79.80;;;;;;5093766;28;20054;-67
2023/08/17 08:50:53;;;;;;;15.55;8.48;;;33.40;80.20;;;;;;5093694;28;20036;-68
2023/08/17 08:54:08;;;;;;;18.10;7.72;;;33.40;80.10;;;;;;5094040;28;20039;-68
2023/08/17 08:57:16;;;;;;;13.13;8.63;;;33.40;79.30;;;;;;5094534;28;20047;-67
2023/08/17 09:00:21;;;;;;;12.77;7.00;;;33.10;79.30;;;;;;5093535;28;20063;-68
2023/08/17 09:03:26;;;;;;;13.43;8.93;;;33.10;79.80;;;;;;5093163;28;20037;-68
2023/08/17 09:06:33;;;;;;;9.93;7.85;;;33.20;79.70;;;;;;5093445;28;20297;-67
2023/08/17 09:09:38;;;;;;;11.75;7.60;;;33.20;80.40;;;;;;5093309;28;20553;-67
2023/08/17 09:12:44;;;;;;;15.68;8.25;;;33.20;79.20;;;;;;5093071;28;20412;-67
2023/08/17 09:15:48;;;;;;;14.88;7.78;;;33.20;78.80;;;;;;5093222;28;20498;-68
2023/08/17 09:18:53;;;;;;;11.40;7.93;;;33.20;79.10;;;;;;5092900;28;20043;-69
2023/08/17 09:21:57;;;;;;;11.40;8.23;;;33.20;78.30;;;;;;5092789;28;20502;-68
2023/08/17 09:25:05;;;;;;;14.75;7.68;;;33.10;77.50;;;;;;5093040;28;20043;-67
2023/08/17 09:28:10;;;;;;;10.25;7.40;;;33.00;79.20;;;;;;5092726;28;20055;-68
2023/08/17 09:31:14;;;;;;;16.40;8.80;;;33.10;80.00;;;;;;5092435;28;20031;-67
2023/08/17 09:34:19;;;;;;;15.88;8.00;;;33.20;79.20;;;;;;5092527;28;20046;-67
2023/08/17 09:37:23;;;;;;;8.27;7.05;;;33.20;79.00;;;;;;5092738;28;20063;-68
2023/08/17 09:40:27;;;;;;;9.18;6.80;;;33.20;79.40;;;;;;5092743;28;20225;-68
2023/08/17 09:43:33;;;;;;;9.40;7.10;;;33.30;79.40;;;;;;5092772;28;20511;-68
2023/08/17 09:46:37;;;;;;;18.67;7.22;;;33.40;78.50;;;;;;5090718;28;20051;-68
2023/08/17 09:49:41;;;;;;;7.38;6.30;;;33.50;77.20;;;;;;5092429;28;20214;-67
2023/08/17 09:52:45;;;;;;;12.70;6.88;;;33.50;77.20;;;;;;5092523;28;20054;-68
2023/08/17 09:55:50;;;;;;;12.50;6.50;;;33.60;76.70;;;;;;5092184;28;20047;-68
2023/08/17 09:58:54;;;;;;;8.98;5.60;;;33.70;75.80;;;;;;5092184;28;20051;-68
2023/08/17 10:01:59;;;;;;;8.25;6.30;;;33.70;75.70;;;;;;5092153;28;20051;-68
2023/08/17 10:05:06;;;;;;;11.52;6.38;;;33.70;76.40;;;;;;5092731;28;20039;-67
2023/08/17 10:08:11;;;;;;;11.02;6.72;;;33.70;77.10;;;;;;5092288;28;20047;-68
2023/08/17 10:11:19;;;;;;;7.05;6.18;;;33.90;78.60;;;;;;5091961;28;20051;-68
2023/08/17 10:14:30;;;;;;;13.18;7.22;;;33.90;79.10;;;;;;5092066;28;20388;-68
2023/08/17 10:17:41;;;;;;;8.45;6.40;;;34.00;78.70;;;;;;5091954;28;20424;-67
2023/08/17 10:20:54;;;;;;;11.82;6.82;;;34.00;78.90;;;;;;5091564;28;20122;-69
2023/08/17 10:23:59;;;;;;;9.93;6.57;;;34.00;78.20;;;;;;5091725;28;20388;-68
2023/08/17 10:27:05;;;;;;;14.32;7.53;;;34.00;78.50;;;;;;5091464;28;20051;-67
2023/08/17 10:30:11;;;;;;;8.85;7.00;;;34.10;78.10;;;;;;5091460;28;20038;-68
2023/08/17 10:33:18;;;;;;;11.30;7.43;;;34.10;78.20;;;;;;5091777;28;20054;-67
2023/08/17 10:36:23;;;;;;;13.60;7.00;;;34.10;78.70;;;;;;5091650;28;20043;-74
2023/08/17 10:39:30;;;;;;;15.27;7.30;;;34.10;78.70;;;;;;5091311;28;20066;-69
2023/08/17 10:42:37;;;;;;;7.43;6.65;;;34.10;78.70;;;;;;5091478;28;20039;-69
2023/08/17 10:45:44;;;;;;;13.23;7.35;;;34.10;78.80;;;;;;5091485;28;20042;-67
2023/08/17 10:48:52;;;;;;;11.93;7.32;;;34.20;78.30;;;;;;5091589;28;20039;-68
2023/08/17 10:52:03;;;;;;;15.23;7.60;;;34.10;78.90;;;;;;5091216;28;20047;-68
2023/08/17 10:55:12;;;;;;;11.70;7.95;;;34.00;78.70;;;;;;5091478;28;20063;-68
2023/08/17 10:58:16;;;;;;;8.63;7.72;;;33.90;78.50;;;;;;5091377;28;20070;-67
2023/08/17 11:01:40;;;;;;;11.32;7.75;;;33.90;78.70;;;;;;5091312;28;20051;-67
2023/08/17 11:04:51;;;;;;;9.68;7.40;;;33.80;79.20;;;;;;5091158;28;20055;-68
2023/08/17 11:07:55;;;;;;;16.55;8.10;;;33.90;79.90;;;;;;5091205;28;20051;-67
2023/08/17 11:11:06;;;;;;;8.93;7.68;;;33.90;79.30;;;;;;5090811;28;20039;-66
2023/08/17 11:14:10;;;;;;;8.02;7.05;;;33.80;78.60;;;;;;5090766;28;20124;-67
2023/08/17 11:17:14;;;;;;;16.55;7.20;;;33.70;79.50;;;;;;5090836;28;20404;-68
2023/08/17 11:20:18;;;;;;;14.40;7.63;;;33.70;80.10;;;;;;5090756;28;20051;-67
2023/08/17 11:23:23;;;;;;;10.18;7.78;;;33.70;79.30;;;;;;5091014;28;20106;-67
2023/08/17 11:26:27;;;;;;;11.25;7.70;;;33.60;79.50;;;;;;5090845;28;20063;-67
2023/08/17 11:29:33;;;;;;;10.52;6.93;;;33.60;80.60;;;;;;5091081;28;20047;-67
2023/08/17 11:32:37;;;;;;;10.55;7.30;;;33.60;80.70;;;;;;5090647;28;20039;-67
2023/08/17 11:35:41;;;;;;;15.85;7.13;;;33.60;79.90;;;;;;5091179;28;20067;-67
2023/08/17 11:38:46;;;;;;;7.80;6.90;;;33.50;79.50;;;;;;5090592;28;20086;-66
2023/08/17 11:41:52;;;;;;;10.90;7.40;;;33.50;79.70;;;;;;5090845;28;20293;-67
2023/08/17 11:44:59;;;;;;;11.48;7.22;;;33.40;79.80;;;;;;5090607;28;20048;-68
2023/08/17 11:48:05;;;;;;;11.40;7.15;;;33.40;79.40;;;;;;5090864;28;20490;-68
2023/08/17 11:51:12;;;;;;;11.73;8.02;;;33.40;79.10;;;;;;5090862;28;20035;-68
2023/08/17 11:54:16;;;;;;;8.73;7.57;;;33.40;79.60;;;;;;5090808;28;20531;-67
2023/08/17 11:57:23;;;;;;;7.35;6.65;;;33.40;80.20;;;;;;5090461;28;20495;-67
2023/08/17 12:00:36;;;;;;;9.73;7.40;;;33.50;80.10;;;;;;5090549;28;20051;-67
2023/08/17 12:03:44;;;;;;;11.95;7.43;;;33.50;80.30;;;;;;5090799;28;20384;-67
2023/08/17 12:06:48;;;;;;;11.63;7.50;;;33.50;80.20;;;;;;5090665;28;20043;-67
2023/08/17 12:09:53;;;;;;;8.75;7.50;;;33.60;80.40;;;;;;5092634;28;20039;-68
2023/08/17 12:13:00;;;;;;;11.25;7.22;;;33.50;80.60;;;;;;5094400;28;20039;-67
2023/08/17 12:16:04;;;;;;;8.68;6.82;;;33.50;80.30;;;;;;5094407;28;20043;-68
2023/08/17 12:19:10;;;;;;;8.65;6.32;;;33.40;81.00;;;;;;5094045;28;20043;-68
2023/08/17 12:22:13;;;;;;;17.05;8.45;;;33.40;80.80;;;;;;5093953;28;20047;-68
2023/08/17 12:25:22;;;;;;;10.98;6.45;;;33.40;80.60;;;;;;5094265;28;20054;-68
2023/08/17 12:28:27;;;;;;;10.63;6.57;;;33.30;81.80;;;;;;5094573;28;20490;-67
2023/08/17 12:31:31;;;;;;;9.30;7.47;;;33.20;81.30;;;;;;5093223;28;20087;-67
2023/08/17 12:34:35;;;;;;;17.30;7.13;;;33.20;81.70;;;;;;5093993;28;20047;-66
2023/08/17 12:37:39;;;;;;;19.33;7.28;;;33.10;81.60;;;;;;5094041;28;20047;-68
2023/08/17 12:40:46;;;;;;;10.93;6.95;;;33.10;81.70;;;;;;5093088;28;20062;-68
2023/08/17 12:43:50;;;;;;;13.18;7.50;;;33.10;82.20;;;;;;5093856;28;20039;-67
2023/08/17 12:46:54;;;;;;;15.45;7.40;;;33.10;82.30;;;;;;5093609;28;20043;-67
2023/08/17 12:49:58;;;;;;;14.18;6.10;;;33.00;82.30;;;;;;5093502;28;20395;-68
2023/08/17 12:53:01;;;;;;;11.88;6.30;;;33.00;82.50;;;;;;5093711;28;20051;-67
2023/08/17 12:56:05;;;;;;;8.27;5.90;;;33.00;82.30;;;;;;5093659;28;20043;-68
2023/08/17 12:59:10;;;;;;;13.77;6.03;;;32.90;82.00;;;;;;5093678;28;20051;-68
2023/08/17 13:02:14;;;;;;;10.73;6.22;;;32.90;82.50;;;;;;5093947;28;20416;-67
2023/08/17 13:05:20;;;;;;;7.60;5.75;;;33.00;82.30;;;;;;5093679;28;20047;-68
2023/08/17 13:08:24;;;;;;;10.13;6.32;;;32.90;82.10;;;;;;5093638;28;20035;-67
2023/08/17 13:11:28;;;;;;;10.63;5.65;;;32.90;81.60;;;;;;5093078;28;20396;-68
2023/08/17 13:14:32;;;;;;;12.38;5.55;;;32.90;81.80;;;;;;5093144;28;20392;-67
2023/08/17 13:17:35;;;;;;;9.50;5.45;;;32.90;81.60;;;;;;5093147;28;20042;-68
2023/08/17 13:20:42;;;;;;;9.50;5.45;;;32.90;81.50;;;;;;5092397;28;20079;-68
2023/08/17 13:23:46;;;;;;;8.65;5.38;;;32.90;81.10;;;;;;5093288;28;20039;-67
2023/08/17 13:26:52;;;;;;;12.23;5.38;;;32.90;81.00;;;;;;5092752;28;20157;-67
2023/08/17 13:29:58;;;;;;;7.72;4.88;;;32.80;81.10;;;;;;5092792;28;20446;-68
2023/08/17 13:33:08;;;;;;;8.32;5.03;;;32.80;80.90;;;;;;5092656;28;20040;-67
2023/08/17 13:36:13;;;;;;;7.68;4.68;;;32.80;80.70;;;;;;5092718;28;20048;-68
2023/08/17 13:39:17;;;;;;;7.28;4.50;;;32.60;80.30;;;;;;5092382;28;20047;-67
2023/08/17 13:42:24;;;;;;;9.32;4.40;;;32.70;79.90;;;;;;5092646;28;20047;-69
2023/08/17 13:45:31;;;;;;;8.27;4.60;;;32.60;79.60;;;;;;5092414;28;20059;-68
2023/08/17 13:48:34;;;;;;;10.35;4.85;;;32.60;79.70;;;;;;5092739;28;20051;-67
2023/08/17 13:51:38;;;;;;;6.85;4.60;;;32.50;79.40;;;;;;5092687;28;20043;-68
2023/08/17 13:54:45;;;;;;;6.78;4.82;;;32.50;79.30;;;;;;5092670;28;20534;-67
2023/08/17 13:57:56;;;;;;;6.43;4.18;;;32.40;79.20;;;;;;5092416;28;20067;-67
2023/08/17 14:00:59;;;;;;;7.95;4.28;;;32.40;79.50;;;;;;5092197;28;20055;-67
2023/08/17 14:04:05;;;;;;;10.15;4.60;;;32.40;79.40;;;;;;5092420;28;20387;-68
2023/08/17 14:07:09;;;;;;;6.82;4.18;;;32.30;78.80;;;;;;5092173;28;20043;-67
2023/08/17 14:10:16;;;;;;;9.65;4.60;;;32.30;79.10;;;;;;5092218;28;20050;-67
2023/08/17 14:13:23;;;;;;;11.05;4.85;;;32.30;78.70;;;;;;5091892;28;20047;-68
2023/08/17 14:16:27;;;;;;;7.25;4.40;;;32.30;78.50;;;;;;5091324;28;20039;-66
2023/08/17 14:19:31;;;;;;;8.95;4.85;;;32.30;79.30;;;;;;5091482;28;20039;-67
2023/08/17 14:22:35;;;;;;;5.95;4.30;;;32.30;79.00;;;;;;5091672;28;20051;-68
2023/08/17 14:25:39;;;;;;;10.20;5.25;;;32.30;78.80;;;;;;5091960;28;20035;-67
2023/08/17 14:28:43;;;;;;;28.23;6.35;;;32.40;78.70;;;;;;5091362;28;20059;-67
2023/08/17 14:31:46;;;;;;;13.15;5.07;;;32.40;78.30;;;;;;5090209;28;20051;-68
2023/08/17 14:34:53;;;;;;;8.35;4.53;;;32.30;77.90;;;;;;5090865;28;20047;-70
2023/08/17 14:38:00;;;;;;;7.95;4.68;;;32.30;78.10;;;;;;5091394;28;20047;-68
2023/08/17 14:41:06;;;;;;;8.68;4.85;;;32.30;78.40;;;;;;5091263;28;20123;-67
2023/08/17 14:44:10;;;;;;;5.70;5.10;;;32.30;78.50;;;;;;5091614;28;20055;-67
2023/08/17 14:47:14;;;;;;;6.25;4.43;;;32.30;78.20;;;;;;5091589;28;20399;-67
2023/08/17 14:50:21;;;;;;;6.85;4.95;;;32.30;78.10;;;;;;5091199;28;20043;-68
2023/08/17 14:53:25;;;;;;;6.88;4.63;;;32.20;78.20;;;;;;5091585;28;20057;-67
2023/08/17 14:56:29;;;;;;;5.78;4.15;;;32.20;78.20;;;;;;5091540;28;20055;-67
2023/08/17 14:59:33;;;;;;;10.70;5.00;;;32.20;78.40;;;;;;5091196;28;20055;-67
2023/08/17 15:02:38;;;;;;;6.22;5.40;;;32.20;78.60;;;;;;5090581;28;20051;-67
2023/08/17 15:05:42;;;;;;;6.32;4.10;;;32.20;78.70;;;;;;5091304;28;20063;-68
2023/08/17 15:08:46;;;;;;;6.45;4.57;;;32.20;78.70;;;;;;5090974;28;20043;-68
2023/08/17 15:11:50;;;;;;;7.72;4.78;;;32.20;78.80;;;;;;5091133;28;20047;-68
2023/08/17 15:14:54;;;;;;;10.93;5.10;;;32.10;78.40;;;;;;5091223;28;20388;-67
2023/08/17 15:17:58;;;;;;;9.40;4.93;;;32.10;78.40;;;;;;5090835;28;20035;-67
2023/08/17 15:21:02;;;;;;;8.23;5.55;;;32.00;79.00;;;;;;5090936;28;20078;-67
2023/08/17 15:24:06;;;;;;;10.23;4.60;;;32.00;79.20;;;;;;5091182;28;20058;-67
2023/08/17 15:27:10;;;;;;;12.40;5.32;;;32.00;79.10;;;;;;5090710;28;20062;-68
2023/08/17 15:30:14;;;;;;;8.38;4.45;;;32.80;78.20;;;;;;5090868;28;20035;-68
2023/08/17 15:33:19;;;;;;;5.90;4.55;;;34.10;75.20;;;;;;5090086;28;20428;-69
2023/08/17 15:36:23;;;;;;;15.15;5.40;;;33.80;75.00;;;;;;5088286;28;20059;-67
2023/08/17 15:39:28;;;;;;;5.90;4.30;;;33.50;75.90;;;;;;5089294;28;20050;-68
2023/08/17 15:42:32;;;;;;;6.82;4.07;;;33.20;76.70;;;;;;5090515;28;20058;-67
2023/08/17 15:45:36;;;;;;;9.40;4.38;;;32.80;77.40;;;;;;5094302;28;20070;-66